Time;durP1;ratioP1;P1;durP2;ratioP2;P2;SDS_P1;SDS_P2;PMS_P1;PMS_P2;Temp;Humidity;BMP_temperature;BMP_pressure;BME280_temperature;BME280_humidity;BME280_pressure;Samples;Min_cycle;Max_cycle;Signal;HPM_P1;HPM_P2
2023/10/18 00:00:03;;;;;;;10.00;3.35;;;12.60;99.90;;;;;;5056062;28;20113;-50
2023/10/18 00:02:30;;;;;;;5.95;2.47;;;12.50;99.90;;;;;;5055659;28;20126;-52
2023/10/18 00:04:57;;;;;;;6.63;2.90;;;12.50;99.90;;;;;;5054637;28;20025;-50
2023/10/18 00:07:23;;;;;;;6.88;3.28;;;12.50;99.90;;;;;;5055698;28;20053;-52
2023/10/18 00:09:49;;;;;;;5.57;2.60;;;12.40;99.90;;;;;;5055858;28;20025;-51
2023/10/18 00:12:20;;;;;;;4.95;3.28;;;12.40;99.90;;;;;;5055826;28;20661;-51
2023/10/18 00:14:46;;;;;;;6.13;3.20;;;12.40;99.90;;;;;;5054679;28;20033;-52
2023/10/18 00:17:12;;;;;;;8.32;3.28;;;12.30;99.90;;;;;;5055224;28;20098;-49
2023/10/18 00:19:39;;;;;;;5.55;2.97;;;12.30;99.90;;;;;;5055577;28;20025;-48
2023/10/18 00:22:07;;;;;;;8.85;3.45;;;12.30;99.90;;;;;;5055626;28;20037;-49
2023/10/18 00:24:33;;;;;;;8.57;3.55;;;12.30;99.90;;;;;;5055682;28;20075;-48
2023/10/18 00:26:58;;;;;;;5.38;3.33;;;12.20;99.90;;;;;;5054261;28;20037;-49
2023/10/18 00:29:24;;;;;;;7.93;4.00;;;12.20;99.90;;;;;;5055399;28;20025;-49
2023/10/18 00:31:50;;;;;;;6.55;4.00;;;12.20;99.90;;;;;;5055670;28;20035;-51
2023/10/18 00:34:17;;;;;;;6.97;3.22;;;12.20;99.90;;;;;;5054916;28;20029;-49
2023/10/18 00:36:43;;;;;;;7.63;3.28;;;12.20;99.90;;;;;;5054342;28;20059;-51
2023/10/18 00:39:42;;;;;;;8.80;3.60;;;12.30;99.90;;;;;;5055130;28;20060;-50
2023/10/18 00:44:48;;;;;;;8.50;3.70;;;12.30;99.90;;;;;;5055153;28;20095;-52
2023/10/18 00:47:14;;;;;;;8.07;3.90;;;12.20;99.90;;;;;;5055098;28;20033;-49
2023/10/18 00:49:41;;;;;;;7.97;3.60;;;12.20;99.90;;;;;;5054638;28;20044;-50
2023/10/18 00:52:07;;;;;;;6.10;3.08;;;12.20;99.90;;;;;;5053898;28;20132;-48
2023/10/18 00:54:33;;;;;;;6.70;3.58;;;12.30;99.90;;;;;;5054948;28;20403;-49
2023/10/18 00:56:59;;;;;;;4.28;2.42;;;12.40;99.90;;;;;;5053570;28;20091;-49
2023/10/18 00:59:27;;;;;;;6.07;3.20;;;12.50;99.90;;;;;;5054857;28;20426;-48
2023/10/18 01:02:03;;;;;;;4.47;2.67;;;12.50;99.90;;;;;;5053920;28;20439;-48
2023/10/18 01:04:32;;;;;;;6.47;3.50;;;12.60;99.90;;;;;;5053689;28;20033;-50
2023/10/18 01:06:58;;;;;;;5.68;2.95;;;12.70;99.90;;;;;;5053544;28;20057;-50
2023/10/18 01:09:24;;;;;;;7.13;2.90;;;12.70;99.90;;;;;;5054683;28;20102;-49
2023/10/18 01:11:51;;;;;;;5.00;2.72;;;12.80;99.90;;;;;;5054815;28;20068;-49
2023/10/18 01:14:18;;;;;;;4.30;2.58;;;12.80;99.90;;;;;;5054636;28;20029;-50
2023/10/18 01:16:44;;;;;;;5.00;3.28;;;12.70;99.90;;;;;;5054349;28;20339;-50
2023/10/18 01:19:13;;;;;;;4.85;3.35;;;12.70;99.90;;;;;;5053332;28;20080;-50
2023/10/18 01:21:42;;;;;;;6.60;3.40;;;12.60;99.90;;;;;;5054332;28;20043;-50
2023/10/18 01:24:13;;;;;;;7.03;3.30;;;12.70;99.90;;;;;;5054655;28;20048;-49
2023/10/18 01:26:39;;;;;;;6.18;3.33;;;12.60;99.90;;;;;;5054391;28;20036;-50
2023/10/18 01:29:08;;;;;;;6.03;2.30;;;12.60;99.90;;;;;;5054593;28;20037;-49
2023/10/18 01:31:34;;;;;;;6.15;3.05;;;12.70;99.90;;;;;;5053508;28;20096;-49
2023/10/18 01:34:10;;;;;;;7.93;3.25;;;12.80;99.90;;;;;;5054616;28;20054;-49
2023/10/18 01:36:39;;;;;;;7.47;3.45;;;12.80;99.90;;;;;;5054239;28;20391;-50
2023/10/18 01:39:09;;;;;;;7.13;3.50;;;12.80;99.90;;;;;;5054375;28;20408;-50
2023/10/18 01:41:37;;;;;;;5.40;3.45;;;12.60;99.90;;;;;;5054499;28;20069;-50
2023/10/18 01:44:07;;;;;;;8.57;4.28;;;12.50;99.90;;;;;;5054434;28;20036;-50
2023/10/18 01:46:48;;;;;;;7.47;4.38;;;12.50;99.90;;;;;;5054444;28;20025;-47
2023/10/18 01:49:18;;;;;;;6.80;3.90;;;12.50;99.90;;;;;;5054543;28;20083;-45
2023/10/18 01:51:46;;;;;;;7.18;3.88;;;12.50;99.90;;;;;;5054481;28;20116;-46
2023/10/18 01:54:15;;;;;;;7.35;3.72;;;12.50;99.90;;;;;;5053894;28;20033;-46
2023/10/18 01:56:43;;;;;;;9.80;4.10;;;12.50;99.90;;;;;;5054347;28;20057;-46
2023/10/18 01:59:13;;;;;;;7.40;4.43;;;12.50;99.90;;;;;;5052943;28;20098;-46
2023/10/18 02:01:38;;;;;;;9.68;5.10;;;12.50;99.90;;;;;;5054274;28;20116;-46
2023/10/18 02:04:10;;;;;;;13.43;5.38;;;12.40;99.90;;;;;;5054281;28;20080;-46
2023/10/18 02:06:36;;;;;;;9.75;4.30;;;12.30;99.90;;;;;;5054130;28;20075;-46
2023/10/18 02:09:09;;;;;;;8.27;4.63;;;12.30;99.90;;;;;;5054347;28;20029;-50
2023/10/18 02:11:35;;;;;;;9.70;4.80;;;12.20;99.90;;;;;;5054272;28;20037;-48
2023/10/18 02:14:02;;;;;;;7.53;4.78;;;12.30;99.90;;;;;;5054077;28;20044;-49
2023/10/18 02:16:28;;;;;;;7.30;4.25;;;12.30;99.90;;;;;;5053990;28;20036;-49
2023/10/18 02:18:54;;;;;;;9.30;4.20;;;12.30;99.90;;;;;;5054049;28;20044;-50
2023/10/18 02:21:23;;;;;;;10.20;4.95;;;12.30;99.90;;;;;;5054078;28;20463;-48
2023/10/18 02:23:51;;;;;;;6.60;3.95;;;12.40;99.90;;;;;;5054149;28;20036;-50
2023/10/18 02:26:34;;;;;;;8.77;4.55;;;12.40;99.90;;;;;;5053988;28;20036;-49
2023/10/18 02:29:05;;;;;;;7.32;4.00;;;12.40;99.90;;;;;;5054056;28;20128;-49
2023/10/18 02:31:33;;;;;;;6.63;4.03;;;12.40;99.90;;;;;;5057668;28;20111;-47
2023/10/18 02:33:59;;;;;;;8.80;4.20;;;12.50;99.90;;;;;;5057580;28;20037;-47
2023/10/18 02:36:32;;;;;;;9.20;4.20;;;12.50;99.90;;;;;;5057452;28;20033;-48
2023/10/18 02:38:59;;;;;;;6.18;3.78;;;12.50;99.90;;;;;;5057535;28;20116;-49
2023/10/18 02:41:27;;;;;;;8.45;3.85;;;12.60;99.90;;;;;;5057390;28;20510;-49
2023/10/18 02:43:54;;;;;;;4.70;3.38;;;12.70;99.90;;;;;;5057407;28;20040;-49
2023/10/18 02:46:23;;;;;;;9.35;3.97;;;12.70;99.90;;;;;;5056325;28;20037;-48
2023/10/18 02:48:51;;;;;;;8.68;4.05;;;12.70;99.90;;;;;;5057170;28;20047;-47
2023/10/18 02:51:22;;;;;;;6.55;3.75;;;12.70;99.90;;;;;;5057260;28;20391;-49
2023/10/18 02:53:53;;;;;;;7.85;3.75;;;12.70;99.90;;;;;;5057466;28;20110;-49
2023/10/18 02:56:32;;;;;;;7.20;3.78;;;12.80;99.90;;;;;;5057429;28;20066;-47
2023/10/18 02:59:06;;;;;;;7.22;3.65;;;12.90;99.90;;;;;;5057297;28;20332;-48
2023/10/18 03:01:42;;;;;;;6.32;3.75;;;12.80;99.90;;;;;;5057194;28;20032;-47
2023/10/18 03:04:09;;;;;;;8.13;4.55;;;12.80;99.90;;;;;;5057213;28;20032;-49
2023/10/18 03:06:38;;;;;;;5.47;3.92;;;12.90;99.90;;;;;;5056672;28;20049;-50
2023/10/18 03:09:05;;;;;;;7.47;4.80;;;13.00;99.90;;;;;;5056903;28;20041;-49
2023/10/18 03:11:32;;;;;;;8.02;4.32;;;13.00;99.90;;;;;;5056403;28;20033;-49
2023/10/18 03:13:58;;;;;;;10.05;4.82;;;13.00;99.90;;;;;;5056906;28;20106;-46
2023/10/18 03:16:38;;;;;;;9.57;4.70;;;13.00;99.90;;;;;;5056950;28;20037;-49
2023/10/18 03:19:13;;;;;;;7.47;4.28;;;12.90;99.90;;;;;;5056536;28;20037;-50
2023/10/18 03:21:41;;;;;;;12.07;5.35;;;12.90;99.90;;;;;;5056833;28;20072;-51
2023/10/18 03:24:08;;;;;;;12.18;5.13;;;12.80;99.90;;;;;;5056598;28;20454;-50
2023/10/18 03:26:35;;;;;;;9.85;4.80;;;12.70;99.90;;;;;;5056607;28;20075;-49
2023/10/18 03:29:11;;;;;;;8.02;4.50;;;12.70;99.90;;;;;;5056358;28;20063;-49
2023/10/18 03:31:43;;;;;;;7.65;4.50;;;12.70;99.90;;;;;;5055637;28;20470;-49
2023/10/18 03:34:17;;;;;;;8.80;4.85;;;12.90;99.90;;;;;;5056523;28;20142;-47
2023/10/18 03:36:52;;;;;;;8.95;4.15;;;12.90;99.90;;;;;;5056180;28;20095;-49
2023/10/18 03:39:23;;;;;;;9.35;4.30;;;12.90;99.90;;;;;;5056237;28;20025;-50
2023/10/18 03:41:50;;;;;;;7.65;4.60;;;12.90;99.90;;;;;;5055934;28;20039;-50
2023/10/18 03:44:26;;;;;;;7.15;4.53;;;12.90;99.90;;;;;;5056275;28;20041;-49
2023/10/18 03:47:05;;;;;;;8.48;4.78;;;12.90;99.90;;;;;;5056170;28;20071;-49
2023/10/18 03:49:33;;;;;;;10.32;5.00;;;13.00;99.90;;;;;;5056351;28;20029;-48
2023/10/18 03:52:06;;;;;;;10.15;4.93;;;13.00;99.90;;;;;;5055040;28;20381;-50
2023/10/18 03:54:44;;;;;;;8.05;4.32;;;13.00;99.90;;;;;;5055981;28;20039;-50
2023/10/18 03:57:15;;;;;;;10.57;4.95;;;13.00;99.90;;;;;;5055963;28;20040;-50
2023/10/18 03:59:44;;;;;;;9.20;4.70;;;13.10;99.90;;;;;;5054990;28;20086;-50
2023/10/18 04:02:26;;;;;;;9.45;5.10;;;13.10;99.90;;;;;;5055922;28;20675;-49
2023/10/18 04:04:58;;;;;;;6.28;4.18;;;13.00;99.90;;;;;;5055681;28;20335;-49
2023/10/18 04:07:24;;;;;;;11.25;4.55;;;12.90;99.90;;;;;;5055629;28;20088;-50
2023/10/18 04:12:24;;;;;;;8.15;4.88;;;13.10;99.90;;;;;;5055576;28;20025;-50
2023/10/18 04:14:53;;;;;;;10.73;5.43;;;12.90;99.90;;;;;;5054201;28;20116;-48
2023/10/18 04:20:20;;;;;;;7.10;4.22;;;12.70;99.90;;;;;;5055622;28;20119;-50
2023/10/18 04:22:48;;;;;;;6.53;3.67;;;12.70;99.90;;;;;;5055472;28;20029;-49
2023/10/18 04:27:58;;;;;;;10.82;5.40;;;13.10;99.90;;;;;;5055485;28;20059;-49
2023/10/18 04:30:30;;;;;;;6.82;3.90;;;13.00;99.90;;;;;;5054333;28;20037;-49
2023/10/18 04:32:59;;;;;;;9.88;5.93;;;13.10;99.90;;;;;;5055377;28;20041;-47
2023/10/18 04:35:26;;;;;;;14.05;5.65;;;13.10;99.90;;;;;;5055360;28;20397;-47
2023/10/18 04:37:55;;;;;;;11.77;5.95;;;13.00;99.90;;;;;;5055190;28;20045;-49
2023/10/18 04:40:28;;;;;;;14.23;6.07;;;12.90;99.90;;;;;;5054212;28;20094;-52
2023/10/18 04:42:55;;;;;;;9.20;5.72;;;12.90;99.90;;;;;;5054526;28;20061;-50
2023/10/18 04:45:24;;;;;;;8.70;5.03;;;12.90;99.90;;;;;;5055441;28;20124;-50
2023/10/18 04:47:57;;;;;;;9.48;5.68;;;12.90;99.90;;;;;;5053948;28;20041;-49
2023/10/18 04:50:29;;;;;;;9.18;6.22;;;13.00;99.90;;;;;;5054915;28;20344;-49
2023/10/18 04:52:58;;;;;;;11.20;6.35;;;12.80;99.90;;;;;;5054414;28;20456;-50
2023/10/18 04:55:27;;;;;;;13.30;5.57;;;12.80;99.90;;;;;;5055043;28;20029;-49
2023/10/18 04:57:53;;;;;;;10.60;6.10;;;12.80;99.90;;;;;;5055050;28;20104;-50
2023/10/18 05:00:25;;;;;;;8.35;5.55;;;12.80;99.90;;;;;;5054942;28;20474;-49
2023/10/18 05:02:54;;;;;;;12.32;6.15;;;12.70;99.90;;;;;;5054904;28;20029;-49
2023/10/18 05:05:20;;;;;;;13.75;6.63;;;12.80;99.90;;;;;;5054819;28;20120;-48
2023/10/18 05:07:48;;;;;;;10.68;5.88;;;12.80;99.90;;;;;;5055124;28;20045;-50
2023/10/18 05:10:14;;;;;;;9.65;5.43;;;12.80;99.90;;;;;;5055046;28;20346;-50
2023/10/18 05:15:31;;;;;;;6.00;3.92;;;13.00;99.90;;;;;;5054923;28;20071;-50
2023/10/18 05:18:14;;;;;;;9.50;5.68;;;13.10;99.90;;;;;;5054201;28;20453;-49
2023/10/18 05:23:10;;;;;;;9.48;6.13;;;13.00;99.90;;;;;;5054777;28;20123;-50
2023/10/18 05:25:39;;;;;;;12.70;5.65;;;12.80;99.90;;;;;;5054636;28;20044;-48
2023/10/18 05:28:09;;;;;;;11.23;5.30;;;13.00;99.90;;;;;;5054751;28;20461;-48
2023/10/18 05:36:12;;;;;;;7.57;4.38;;;13.20;99.90;;;;;;5054735;28;20132;-50
2023/10/18 05:41:35;;;;;;;10.55;5.05;;;13.50;99.90;;;;;;5054648;28;20041;-50
2023/10/18 05:44:01;;;;;;;6.25;4.10;;;13.50;99.90;;;;;;5054374;28;20025;-50
2023/10/18 05:46:38;;;;;;;8.93;4.57;;;13.50;99.90;;;;;;5054349;28;20112;-50
2023/10/18 05:49:13;;;;;;;14.07;6.38;;;13.60;99.90;;;;;;5054239;28;20025;-50
2023/10/18 05:51:39;;;;;;;13.55;6.95;;;13.50;99.90;;;;;;5054304;28;20033;-50
2023/10/18 05:54:05;;;;;;;9.38;6.10;;;13.20;99.90;;;;;;5054393;28;20453;-50
2023/10/18 05:56:34;;;;;;;12.10;6.13;;;13.00;99.90;;;;;;5053120;28;20052;-50
2023/10/18 06:01:46;;;;;;;8.40;5.55;;;13.00;99.90;;;;;;5054432;28;20481;-50
2023/10/18 06:04:23;;;;;;;8.98;4.85;;;13.20;99.90;;;;;;5055922;28;20056;-49
2023/10/18 06:06:51;;;;;;;10.52;5.55;;;13.30;99.90;;;;;;5057895;28;20366;-48
2023/10/18 06:09:32;;;;;;;13.27;6.20;;;13.40;99.90;;;;;;5057924;28;20531;-49
2023/10/18 06:12:00;;;;;;;10.88;6.30;;;13.20;99.90;;;;;;5057993;28;20041;-50
2023/10/18 06:14:33;;;;;;;13.30;6.95;;;13.10;99.90;;;;;;5057865;28;20045;-50
2023/10/18 06:19:45;;;;;;;11.73;6.80;;;12.90;99.90;;;;;;5058226;28;20136;-50
2023/10/18 06:22:38;;;;;;;9.38;6.03;;;12.90;99.90;;;;;;5057154;28;20098;-50
2023/10/18 06:25:09;;;;;;;12.70;6.68;;;12.90;99.90;;;;;;5057735;28;20036;-50
2023/10/18 06:27:41;;;;;;;14.55;6.35;;;12.90;99.90;;;;;;5057843;28;20108;-50
2023/10/18 06:30:17;;;;;;;10.98;7.43;;;12.90;99.90;;;;;;5057709;28;20416;-49
2023/10/18 06:32:44;;;;;;;13.18;7.03;;;12.90;99.90;;;;;;5057506;28;20037;-50
2023/10/18 06:35:17;;;;;;;12.88;8.50;;;12.80;99.90;;;;;;5057516;28;20036;-49
2023/10/18 06:37:44;;;;;;;12.02;6.72;;;12.80;99.90;;;;;;5056905;28;20039;-48
2023/10/18 06:40:24;;;;;;;12.77;6.65;;;12.80;99.90;;;;;;5056178;28;20481;-49
2023/10/18 06:42:49;;;;;;;8.05;5.78;;;12.70;99.90;;;;;;5057369;28;20029;-48
2023/10/18 06:45:17;;;;;;;10.75;6.00;;;12.80;99.90;;;;;;5057010;28;20384;-47
2023/10/18 06:47:46;;;;;;;13.02;7.10;;;12.80;99.90;;;;;;5057248;28;20037;-46
2023/10/18 06:50:14;;;;;;;8.90;6.45;;;12.80;99.90;;;;;;5056758;28;20044;-46
2023/10/18 06:52:52;;;;;;;11.85;6.30;;;12.80;99.90;;;;;;5056900;28;20500;-46
2023/10/18 06:55:41;;;;;;;12.15;6.32;;;12.80;99.90;;;;;;5040990;28;20071;-49
2023/10/18 06:58:15;;;;;;;9.80;5.80;;;12.80;99.90;;;;;;5057130;28;20331;-46
2023/10/18 07:00:46;;;;;;;16.85;6.75;;;12.80;99.90;;;;;;5056995;28;20434;-47
2023/10/18 07:03:18;;;;;;;10.48;5.68;;;12.80;99.90;;;;;;5055857;28;20116;-47
2023/10/18 07:05:46;;;;;;;14.98;5.32;;;12.90;99.90;;;;;;5056529;28;20045;-49
2023/10/18 07:08:19;;;;;;;9.55;4.90;;;13.30;99.90;;;;;;5056555;28;20043;-50
2023/10/18 07:10:56;;;;;;;7.88;4.22;;;13.40;99.90;;;;;;5056946;28;20049;-46
2023/10/18 07:13:32;;;;;;;6.63;2.95;;;13.70;99.90;;;;;;5056798;28;20047;-48
2023/10/18 07:16:05;;;;;;;4.40;2.72;;;14.00;99.90;;;;;;5055934;28;20120;-50
2023/10/18 07:18:33;;;;;;;5.00;3.22;;;14.40;99.90;;;;;;5056383;28;20496;-50
2023/10/18 07:21:06;;;;;;;;;;;14.50;99.90;;;;;;5056686;28;20024;-50
2023/10/18 07:23:36;;;;;;;7.15;3.65;;;14.50;99.90;;;;;;5056320;28;19913;-49
2023/10/18 07:26:03;;;;;;;10.18;4.05;;;14.50;99.90;;;;;;5056571;28;20513;-49
2023/10/18 07:28:29;;;;;;;9.05;3.97;;;14.40;99.90;;;;;;5056422;28;20025;-50
2023/10/18 07:30:55;;;;;;;7.72;3.83;;;14.30;99.90;;;;;;5056534;28;20373;-49
2023/10/18 07:33:24;;;;;;;7.85;3.63;;;14.30;99.90;;;;;;5056298;28;20041;-50
2023/10/18 07:35:52;;;;;;;6.10;3.10;;;14.40;99.90;;;;;;5056286;28;20451;-49
2023/10/18 07:38:27;;;;;;;7.50;3.97;;;14.40;99.90;;;;;;5056517;28;20029;-49
2023/10/18 07:40:57;;;;;;;8.50;3.67;;;14.40;99.90;;;;;;5056292;28;20029;-50
2023/10/18 07:43:25;;;;;;;5.60;2.50;;;14.40;99.90;;;;;;5054982;28;20033;-50
2023/10/18 07:45:54;;;;;;;6.88;3.00;;;14.70;99.90;;;;;;5056048;28;20032;-48
2023/10/18 07:48:19;;;;;;;3.58;2.17;;;15.10;99.90;;;;;;5056156;28;20029;-51
2023/10/18 07:50:50;;;;;;;3.70;2.22;;;15.20;99.90;;;;;;5054886;28;20044;-50
2023/10/18 07:53:16;;;;;;;5.47;2.85;;;15.20;99.90;;;;;;5055453;28;20035;-50
2023/10/18 07:55:41;;;;;;;5.15;2.85;;;15.10;99.90;;;;;;5055474;28;20374;-48
2023/10/18 07:58:24;;;;;;;8.98;2.92;;;15.10;99.90;;;;;;5055623;28;20033;-51
2023/10/18 08:03:31;;;;;;;6.40;2.67;;;15.10;99.90;;;;;;5055555;28;20084;-50
2023/10/18 08:05:59;;;;;;;7.25;3.22;;;15.20;99.90;;;;;;5054242;28;20060;-50
2023/10/18 08:08:25;;;;;;;7.90;3.65;;;15.30;99.90;;;;;;5055581;28;20350;-50
2023/10/18 08:10:54;;;;;;;6.85;2.95;;;15.30;99.90;;;;;;5055809;28;20434;-49
2023/10/18 08:13:28;;;;;;;5.05;2.78;;;15.20;99.90;;;;;;5055584;28;20055;-49
2023/10/18 08:16:01;;;;;;;4.20;2.67;;;15.30;99.90;;;;;;5055495;28;20084;-51
2023/10/18 08:18:52;;;;;;;5.65;2.58;;;15.40;99.90;;;;;;5054840;28;20454;-50
2023/10/18 08:24:25;;;;;;;5.15;2.83;;;15.50;99.90;;;;;;5058521;28;20072;-51
2023/10/18 08:26:51;;;;;;;7.40;2.72;;;15.60;99.90;;;;;;5053742;28;20021;-49
2023/10/18 08:29:17;;;;;;;4.45;1.98;;;15.60;99.90;;;;;;5054887;28;20063;-51
2023/10/18 08:31:55;;;;;;;4.65;2.25;;;15.50;99.90;;;;;;5053705;28;20028;-49
2023/10/18 08:34:23;;;;;;;4.22;2.75;;;15.50;99.90;;;;;;5054867;28;20344;-51
2023/10/18 08:37:01;;;;;;;3.88;2.33;;;15.50;99.90;;;;;;5054763;28;20480;-51
2023/10/18 08:39:27;;;;;;;4.57;2.35;;;15.80;99.90;;;;;;5055418;28;20098;-51
2023/10/18 08:42:12;;;;;;;4.03;2.10;;;15.80;99.90;;;;;;5054833;28;20124;-51
2023/10/18 08:44:39;;;;;;;4.97;2.72;;;15.70;99.90;;;;;;5053846;28;20025;-51
2023/10/18 08:49:45;;;;;;;6.50;2.17;;;15.70;99.90;;;;;;5055046;28;20120;-51
2023/10/18 08:52:11;;;;;;;2.75;1.73;;;15.90;99.90;;;;;;5054859;28;20059;-51
2023/10/18 08:54:41;;;;;;;8.50;3.20;;;16.10;99.90;;;;;;5054506;28;20454;-51
2023/10/18 08:57:10;;;;;;;6.05;2.60;;;16.00;99.90;;;;;;5054450;28;20092;-48
2023/10/18 08:59:51;;;;;;;6.90;2.72;;;15.80;99.90;;;;;;5054456;28;20037;-51
2023/10/18 09:02:18;;;;;;;6.22;2.65;;;15.80;99.90;;;;;;5054567;28;20048;-51
2023/10/18 09:04:45;;;;;;;5.88;2.80;;;16.10;99.50;;;;;;5054682;28;20025;-51
2023/10/18 09:07:23;;;;;;;4.72;2.22;;;16.00;99.90;;;;;;5054185;28;20075;-51
2023/10/18 09:09:55;;;;;;;4.55;2.10;;;16.10;99.80;;;;;;5053637;28;20044;-50
2023/10/18 09:13:08;;;;;;;6.68;2.60;;;16.10;99.70;;;;;;5054125;28;20033;-50
2023/10/18 09:15:28;;;;;;;4.03;2.17;;;16.10;99.90;;;;;;5052633;28;20032;-49
2023/10/18 09:17:57;;;;;;;10.13;3.53;;;16.00;99.90;;;;;;5053610;28;20040;-51
2023/10/18 09:20:27;;;;;;;3.72;2.05;;;15.90;99.90;;;;;;5037565;28;20029;-47
2023/10/18 09:22:53;;;;;;;4.80;2.40;;;16.00;98.60;;;;;;5054118;28;20051;-51
2023/10/18 09:25:20;;;;;;;4.95;2.80;;;16.20;98.30;;;;;;5054205;28;20029;-50
2023/10/18 09:27:46;;;;;;;9.50;3.75;;;16.30;99.50;;;;;;5053279;28;20036;-49
2023/10/18 09:30:18;;;;;;;5.35;3.25;;;15.90;99.90;;;;;;5054257;28;20047;-51
2023/10/18 09:32:45;;;;;;;7.43;2.83;;;15.60;99.90;;;;;;5054102;28;20180;-51
2023/10/18 09:35:11;;;;;;;5.10;3.63;;;15.60;99.90;;;;;;5054359;28;20040;-51
2023/10/18 09:37:38;;;;;;;9.45;3.70;;;15.60;99.90;;;;;;5053111;28;20063;-50
2023/10/18 09:40:06;;;;;;;5.93;3.10;;;15.40;99.90;;;;;;5058139;28;20033;-51
2023/10/18 09:42:31;;;;;;;8.30;3.15;;;15.50;99.90;;;;;;5057949;28;20057;-50
2023/10/18 09:44:59;;;;;;;7.72;3.30;;;15.60;99.90;;;;;;5058177;28;20387;-51
2023/10/18 09:47:26;;;;;;;6.20;3.42;;;15.60;99.90;;;;;;5058300;28;20032;-48
2023/10/18 09:49:53;;;;;;;7.60;2.90;;;15.50;99.90;;;;;;5058243;28;20521;-51
2023/10/18 09:52:19;;;;;;;7.80;3.58;;;15.60;99.90;;;;;;5058082;28;20402;-50
2023/10/18 09:54:51;;;;;;;5.32;2.90;;;15.70;99.90;;;;;;5040083;28;20037;-48
2023/10/18 09:57:24;;;;;;;3.20;1.92;;;15.80;99.90;;;;;;5057932;28;20048;-51
2023/10/18 09:59:55;;;;;;;6.10;2.53;;;15.80;99.90;;;;;;5057856;28;20033;-51
2023/10/18 10:02:21;;;;;;;5.18;3.10;;;15.80;99.90;;;;;;5057874;28;20033;-51
2023/10/18 10:05:04;;;;;;;8.13;3.47;;;15.80;99.90;;;;;;5057647;28;20043;-51
2023/10/18 10:07:41;;;;;;;10.15;3.80;;;15.90;99.90;;;;;;5057505;28;20077;-50
2023/10/18 10:10:07;;;;;;;5.25;2.95;;;15.70;99.90;;;;;;5041732;28;20056;-51
2023/10/18 10:12:33;;;;;;;10.38;4.75;;;16.00;99.90;;;;;;5057766;28;20040;-49
2023/10/18 10:14:59;;;;;;;10.45;4.30;;;15.70;99.90;;;;;;5057268;28;20033;-50
2023/10/18 10:17:28;;;;;;;8.80;3.83;;;15.40;99.90;;;;;;5057449;28;20029;-51
2023/10/18 10:19:56;;;;;;;9.48;4.38;;;15.30;99.90;;;;;;5057673;28;20033;-50
2023/10/18 10:22:24;;;;;;;4.63;3.17;;;15.20;99.90;;;;;;5039792;28;20029;-51
2023/10/18 10:25:03;;;;;;;5.72;2.92;;;15.30;99.90;;;;;;5056398;28;20442;-51
2023/10/18 10:30:19;;;;;;;10.32;3.88;;;15.90;99.90;;;;;;5056151;28;20021;-48
2023/10/18 10:32:49;;;;;;;8.63;4.25;;;15.60;99.90;;;;;;5056845;28;20033;-50
2023/10/18 10:35:20;;;;;;;6.72;2.75;;;15.30;99.90;;;;;;5057207;28;20409;-50
2023/10/18 10:37:50;;;;;;;9.65;4.53;;;15.10;99.90;;;;;;5057258;28;20064;-51
2023/10/18 10:40:30;;;;;;;9.98;4.07;;;15.20;99.90;;;;;;5057222;28;20029;-51
2023/10/18 10:43:01;;;;;;;;;;;15.40;99.90;;;;;;5041608;28;20370;-50
2023/10/18 10:45:35;;;;;;;6.63;4.28;;;15.60;99.90;;;;;;5056957;28;19913;-52
2023/10/18 10:51:06;;;;;;;4.57;2.70;;;15.40;99.90;;;;;;5055629;28;20085;-49
2023/10/18 10:53:45;;;;;;;7.00;3.25;;;15.50;99.90;;;;;;5056943;28;20059;-51
2023/10/18 10:56:19;;;;;;;6.65;3.05;;;16.00;99.90;;;;;;5056984;28;20104;-51
2023/10/18 11:01:39;;;;;;;7.60;4.03;;;15.90;99.90;;;;;;5056272;28;20048;-52
2023/10/18 11:04:29;;;;;;;11.82;4.70;;;15.70;99.90;;;;;;5056526;28;20430;-51
2023/10/18 11:07:04;;;;;;;10.95;5.10;;;15.50;99.90;;;;;;5056422;28;20053;-50
2023/10/18 11:09:33;;;;;;;9.98;4.90;;;15.30;99.90;;;;;;5056442;28;20048;-51
2023/10/18 11:12:13;;;;;;;7.45;4.13;;;15.10;99.90;;;;;;5056496;28;20040;-51
2023/10/18 11:14:41;;;;;;;11.85;5.40;;;15.00;99.90;;;;;;5056158;28;20044;-51
2023/10/18 11:19:41;;;;;;;9.60;5.28;;;14.90;99.90;;;;;;5056234;28;20037;-51
2023/10/18 11:22:08;;;;;;;13.50;6.00;;;14.90;99.90;;;;;;5055332;28;20029;-51
2023/10/18 11:24:34;;;;;;;8.82;4.82;;;14.70;99.90;;;;;;5055166;28;20036;-49
2023/10/18 11:27:02;;;;;;;7.38;4.47;;;14.80;99.90;;;;;;5056142;28;20057;-51
2023/10/18 11:29:27;;;;;;;10.93;4.38;;;14.80;99.90;;;;;;5055997;28;20433;-51
2023/10/18 11:31:58;;;;;;;6.18;3.47;;;14.80;99.90;;;;;;5056035;28;20128;-50
2023/10/18 11:34:27;;;;;;;7.25;4.20;;;14.90;99.90;;;;;;5055782;28;20067;-51
2023/10/18 11:36:54;;;;;;;7.00;4.13;;;15.20;99.90;;;;;;5055834;28;20415;-48
2023/10/18 11:39:21;;;;;;;9.40;4.35;;;15.20;99.90;;;;;;5055479;28;20117;-49
2023/10/18 11:41:53;;;;;;;12.68;7.97;;;15.10;99.90;;;;;;5038257;28;20091;-49
2023/10/18 11:44:31;;;;;;;9.82;4.47;;;15.20;99.90;;;;;;5054213;28;20103;-49
2023/10/18 11:47:11;;;;;;;8.90;3.85;;;15.30;99.90;;;;;;5055560;28;20029;-49
2023/10/18 11:49:41;;;;;;;8.70;3.63;;;15.30;99.90;;;;;;5055314;28;20041;-48
2023/10/18 11:52:17;;;;;;;6.68;3.42;;;15.40;99.90;;;;;;5055030;28;20320;-50
2023/10/18 11:54:43;;;;;;;6.00;3.78;;;15.50;99.90;;;;;;5055480;28;20036;-49
2023/10/18 11:57:30;;;;;;;8.52;3.30;;;15.50;99.90;;;;;;5054655;28;20040;-48
2023/10/18 12:00:27;;;;;;;8.15;2.72;;;15.60;99.90;;;;;;5055544;28;20040;-50
2023/10/18 12:02:55;;;;;;;9.25;3.72;;;15.50;99.90;;;;;;5054136;28;20063;-50
2023/10/18 12:05:27;;;;;;;4.60;2.63;;;15.50;99.90;;;;;;5054620;28;20033;-51
2023/10/18 12:07:55;;;;;;;5.97;3.75;;;15.50;99.90;;;;;;5054302;28;20347;-51
2023/10/18 12:10:34;;;;;;;8.10;4.30;;;15.60;99.90;;;;;;5054266;28;20024;-49
2023/10/18 12:13:02;;;;;;;6.35;3.70;;;15.60;99.90;;;;;;5055196;28;20098;-51
2023/10/18 12:15:30;;;;;;;5.97;3.92;;;15.60;99.90;;;;;;5054970;28;20065;-49
2023/10/18 12:17:56;;;;;;;7.97;4.40;;;15.70;99.90;;;;;;5055070;28;20045;-50
2023/10/18 12:20:34;;;;;;;7.95;3.88;;;15.80;99.90;;;;;;5055242;28;20112;-52
2023/10/18 12:23:18;;;;;;;6.35;4.50;;;15.70;99.90;;;;;;5054902;28;20098;-51
2023/10/18 12:25:45;;;;;;;8.73;4.10;;;15.70;99.90;;;;;;5055199;28;20037;-48
2023/10/18 12:28:27;;;;;;;7.80;3.20;;;15.90;99.90;;;;;;5055070;28;20033;-52
2023/10/18 12:30:55;;;;;;;8.88;4.60;;;15.90;99.90;;;;;;5055028;28;20041;-50
2023/10/18 12:33:27;;;;;;;8.07;3.95;;;15.90;99.90;;;;;;5055033;28;20033;-48
2023/10/18 12:35:56;;;;;;;8.63;3.63;;;15.80;99.90;;;;;;5055162;28;20037;-50
2023/10/18 12:38:31;;;;;;;6.07;3.45;;;15.80;99.90;;;;;;5054791;28;20037;-50
2023/10/18 12:44:03;;;;;;;8.57;4.47;;;15.60;99.90;;;;;;5063889;28;20048;-48
2023/10/18 12:46:29;;;;;;;7.75;3.78;;;15.50;99.90;;;;;;5054655;28;20040;-51
2023/10/18 12:48:57;;;;;;;4.30;3.05;;;15.40;99.90;;;;;;5053456;28;20458;-51
2023/10/18 12:51:30;;;;;;;8.15;4.78;;;15.30;99.90;;;;;;5054837;28;20519;-50
2023/10/18 12:54:02;;;;;;;5.45;3.50;;;15.30;99.90;;;;;;5053723;28;20033;-52
2023/10/18 13:04:07;;;;;;;8.77;5.22;;;14.90;99.90;;;;;;5054710;28;20037;-52
2023/10/18 13:06:43;;;;;;;10.38;6.20;;;14.80;99.90;;;;;;5054128;28;20442;-50
2023/10/18 13:09:18;;;;;;;9.02;5.47;;;14.90;99.90;;;;;;5054360;28;20045;-50
2023/10/18 13:11:44;;;;;;;11.55;6.07;;;14.90;99.90;;;;;;5054339;28;20051;-50
2023/10/18 13:14:23;;;;;;;8.93;5.82;;;15.00;99.90;;;;;;5053665;28;20122;-51
2023/10/18 13:16:49;;;;;;;10.07;6.68;;;15.00;99.90;;;;;;5053990;28;20040;-52
2023/10/18 13:19:15;;;;;;;10.88;6.88;;;15.00;99.90;;;;;;5054258;28;20094;-52
2023/10/18 13:21:43;;;;;;;11.27;6.15;;;15.00;99.90;;;;;;5054133;28;20096;-49
2023/10/18 13:26:52;;;;;;;9.60;6.13;;;14.90;99.90;;;;;;5054752;28;20043;-52
2023/10/18 13:31:49;;;;;;;13.13;7.10;;;15.00;99.90;;;;;;5054313;28;20373;-51
2023/10/18 13:34:20;;;;;;;11.52;6.90;;;15.00;99.90;;;;;;5054351;28;20057;-51
2023/10/18 13:36:47;;;;;;;13.05;6.20;;;15.00;99.90;;;;;;5054025;28;20060;-51
2023/10/18 13:39:13;;;;;;;17.40;8.23;;;15.10;99.90;;;;;;5053076;28;20103;-52
2023/10/18 13:41:39;;;;;;;13.25;7.20;;;15.10;99.90;;;;;;5053696;28;20494;-51
2023/10/18 13:44:08;;;;;;;16.90;8.25;;;15.20;99.90;;;;;;5054220;28;20324;-51
2023/10/18 13:46:34;;;;;;;11.27;6.30;;;15.20;99.90;;;;;;5053779;28;20131;-51
2023/10/18 13:48:59;;;;;;;9.25;6.50;;;15.30;99.90;;;;;;5053643;28;20116;-51
2023/10/18 13:51:26;;;;;;;10.60;6.25;;;15.40;99.90;;;;;;5053137;28;20130;-49
2023/10/18 13:53:52;;;;;;;13.73;6.05;;;15.30;99.90;;;;;;5054080;28;20357;-48
2023/10/18 13:56:20;;;;;;;10.40;5.05;;;15.20;99.90;;;;;;5054450;28;20033;-49
2023/10/18 13:58:46;;;;;;;14.48;5.55;;;15.20;99.90;;;;;;5054142;28;20099;-50
2023/10/18 14:01:17;;;;;;;6.97;3.85;;;15.20;99.90;;;;;;5052965;28;20029;-48
2023/10/18 14:03:44;;;;;;;10.68;5.90;;;15.10;99.90;;;;;;5053983;28;20354;-51
2023/10/18 14:06:10;;;;;;;10.30;5.55;;;15.20;99.90;;;;;;5053562;28;20498;-48